TimeCST,TemperatureF,Dew PointF,Humidity,Sea Level PressureIn,VisibilityMPH,Wind Direction,Wind SpeedMPH,Gust SpeedMPH,PrecipitationIn,Events,Conditions,WindDirDegrees,DateUTC
12:53 AM,25.0,21.9,88,30.46,10.0,Calm,Calm,-,N/A,,Clear,0,2013-01-04 06:53:00
1:53 AM,24.1,21.0,88,30.46,9.0,Calm,Calm,-,N/A,,Clear,0,2013-01-04 07:53:00
2:53 AM,21.0,19.0,92,30.45,8.0,Calm,Calm,-,N/A,,Clear,0,2013-01-04 08:53:00
3:53 AM,21.9,19.9,92,30.45,7.0,SW,3.5,-,N/A,,Clear,230,2013-01-04 09:53:00
4:53 AM,18.0,18.0,100,30.44,6.0,Calm,Calm,-,N/A,,Clear,0,2013-01-04 10:53:00
6:53 AM,19.0,17.1,92,30.47,10.0,SSW,5.8,-,N/A,,Clear,200,2013-01-04 12:53:00
7:53 AM,19.9,17.1,89,30.48,9.0,South,6.9,-,N/A,,Clear,180,2013-01-04 13:53:00
8:53 AM,27.0,23.0,85,30.47,10.0,South,5.8,-,N/A,,Clear,180,2013-01-04 14:53:00
9:53 AM,32.0,24.1,73,30.48,10.0,South,6.9,-,N/A,,Clear,190,2013-01-04 15:53:00
10:53 AM,37.0,21.9,54,30.47,10.0,SW,11.5,-,N/A,,Clear,230,2013-01-04 16:53:00
11:53 AM,41.0,21.0,45,30.44,10.0,SW,9.2,-,N/A,,Clear,230,2013-01-04 17:53:00
12:53 PM,44.1,21.9,42,30.40,10.0,SSW,11.5,-,N/A,,Clear,210,2013-01-04 18:53:00
1:53 PM,45.0,23.0,42,30.37,10.0,WSW,9.2,-,N/A,,Clear,240,2013-01-04 19:53:00
2:53 PM,46.0,21.9,39,30.36,10.0,SSW,12.7,-,N/A,,Clear,210,2013-01-04 20:53:00
3:53 PM,45.0,21.9,40,30.36,10.0,SW,10.4,-,N/A,,Clear,220,2013-01-04 21:53:00
4:53 PM,42.1,23.0,47,30.36,10.0,SSW,10.4,-,N/A,,Clear,210,2013-01-04 22:53:00
5:53 PM,35.1,23.0,61,30.33,10.0,SSW,8.1,-,N/A,,Clear,200,2013-01-04 23:53:00
6:53 PM,34.0,23.0,64,30.37,10.0,South,6.9,-,N/A,,Clear,190,2013-01-05 00:53:00
7:53 PM,33.1,23.0,66,30.36,10.0,SSW,9.2,-,N/A,,Clear,200,2013-01-05 01:53:00
8:53 PM,35.1,24.1,64,30.35,10.0,South,10.4,-,N/A,,Clear,190,2013-01-05 02:53:00
9:53 PM,35.1,24.1,64,30.35,10.0,South,10.4,-,N/A,,Clear,180,2013-01-05 03:53:00
10:53 PM,33.1,23.0,66,30.35,10.0,South,10.4,-,N/A,,Clear,190,2013-01-05 04:53:00
11:53 PM,30.9,21.9,69,30.33,10.0,South,5.8,-,N/A,,Clear,180,2013-01-05 05:53:00